Lop Buri, Thailand

11:13 AM ICT on February 27, 2015 (GMT +0700)
Bangkok International | Change Station
CLOSE
Current Station
Airport
Location: Bangkok (Don Mueang),
Elevation: 13 ft
Nearby Weather Stations

Elev 13 ft 13.92 °N, 100.61 °E | Updated 13 minutes ago

Scattered Clouds
Scattered Clouds
91 °F
Feels Like 100 °F
N
8
Wind Variable Wind from SSW

Today
High -- | Low -- °F
--% Chance of Precip.
Yesterday
High -- | Low -- °F
Precip. -- in
6:36 AM 6:24 PM
Waxing Gibbous, 65% visible
Pressure 29.89 in
Visibility 6.2 miles
Clouds Few 2500 ft
Scattered Clouds 30000 ft
Heat Index 100 °F
Dew Point 73 °F
Humidity 55%
Rainfall 0.00 in
Snow Depth Not available.
UV 11 out of 12
Pollen Not available.
Air Quality Not available.
Flu Activity Not available.
METAR VTBD 270400Z 21007KT 180V250 9999 FEW025 SCT300 33/23 Q1012 NOSIG

More Conditions Fewer Conditions

Pressure 29.89 in
Visibility 6.2 miles
Clouds Few 2500 ft
Scattered Clouds 30000 ft
Heat Index 100 °F
Dew Point 73 °F
Humidity 55%
Rainfall 0.00 in
Snow Depth Not available.
UV 11 out of 12
Pollen Not available.
Air Quality Not available.
Flu Activity Not available.
METAR VTBD 270400Z 21007KT 180V250 9999 FEW025 SCT300 33/23 Q1012 NOSIG

More Conditions Fewer Conditions

10-Day Weather Forecast

Almanac

Astronomy

Feb. 27, 2015 Rise Set
Actual Time
Civil Twilight
Nautical Twilight
Astronomical Twilight
Moon
Length of Visible Light
Length of Day
Tomorrow will be .
, % of the Moon is Illuminated

Today's Extremes

Country Highs Country Lows

Community

WunderPhotos

Upload Photos

1,800,620 photos uploaded!

WunderBlogs® & News

Nearby

Air Quality

  Air Quality AQ Index Pollutant
Not available.

Snow Depth

Station Depth Elevation

Earthquake Activity

City Distance Mag. Time & Date
Minimum magnitude displayed is 2.5.

Coastal Water Temperatures

Place Temperature

Nearby Weather Stations